createdAt,value
2023-02-09T00:02:00.999Z,53.32
2023-02-09T00:04:29.333Z,52.23
2023-02-09T00:06:56.999Z,51.58
2023-02-09T00:09:24.912Z,51.27
2023-02-09T00:12:10.670Z,51.59
2023-02-09T00:14:37.653Z,51.87
2023-02-09T00:17:09.662Z,52.00
2023-02-09T00:19:36.575Z,52.52
2023-02-09T00:22:03.783Z,52.47
2023-02-09T00:24:31.802Z,52.36
2023-02-09T00:26:58.698Z,52.34
2023-02-09T00:29:27.176Z,52.63
2023-02-09T00:31:54.409Z,52.80
2023-02-09T00:34:21.500Z,53.30
2023-02-09T00:36:51.641Z,53.38
2023-02-09T00:39:18.524Z,53.69
2023-02-09T00:42:04.068Z,53.53
2023-02-09T00:44:32.185Z,53.70
2023-02-09T00:47:01.473Z,53.55
2023-02-09T00:49:29.717Z,53.32
2023-02-09T00:51:58.248Z,53.32
2023-02-09T00:54:26.039Z,53.28
2023-02-09T00:56:53.433Z,53.13
2023-02-09T00:59:20.433Z,53.05
2023-02-09T01:01:47.888Z,52.80
2023-02-09T01:04:15.061Z,52.57
2023-02-09T01:06:42.147Z,52.21
2023-02-09T01:09:09.174Z,52.24
2023-02-09T01:11:36.175Z,52.02
2023-02-09T01:14:04.523Z,51.94
2023-02-09T01:16:31.943Z,51.56
2023-02-09T01:19:00.581Z,51.50
2023-02-09T01:21:29.519Z,51.79
2023-02-09T01:23:56.904Z,51.74
2023-02-09T01:26:24.012Z,51.82
2023-02-09T01:28:53.095Z,51.74
2023-02-09T01:31:21.703Z,52.07
2023-02-09T01:33:51.169Z,52.49
2023-02-09T01:36:18.900Z,52.48
2023-02-09T01:38:45.989Z,52.47
2023-02-09T01:41:13.049Z,52.15
2023-02-09T01:43:51.528Z,52.60
2023-02-09T01:46:20.763Z,52.60
2023-02-09T01:48:49.132Z,52.59
2023-02-09T01:51:19.601Z,52.42
2023-02-09T01:53:46.567Z,51.98
2023-02-09T01:56:18.150Z,51.91
2023-02-09T01:58:46.104Z,51.82
2023-02-09T02:01:13.318Z,51.89
2023-02-09T02:03:41.015Z,51.79
2023-02-09T02:06:12.692Z,51.75
2023-02-09T02:08:43.761Z,51.75
2023-02-09T02:11:11.332Z,51.91
2023-02-09T02:13:39.039Z,51.65
2023-02-09T02:16:33.384Z,51.42
2023-02-09T02:19:19.351Z,51.10
2023-02-09T02:22:01.814Z,50.98
2023-02-09T02:24:41.720Z,51.39
2023-02-09T02:27:10.436Z,51.63
2023-02-09T02:29:58.980Z,51.85
2023-02-09T02:32:47.239Z,51.90
2023-02-09T02:35:20.266Z,51.81
2023-02-09T02:38:14.287Z,51.98
2023-02-09T02:40:58.284Z,52.28
2023-02-09T02:43:46.652Z,52.23
2023-02-09T02:46:18.806Z,52.12
2023-02-09T02:48:56.996Z,52.10
2023-02-09T02:51:34.755Z,52.17
2023-02-09T02:54:04.803Z,52.05
2023-02-09T02:56:36.033Z,51.84
2023-02-09T02:59:04.968Z,51.76
2023-02-09T03:01:34.678Z,52.05
2023-02-09T03:04:01.751Z,52.05
2023-02-09T03:06:31.411Z,51.78
2023-02-09T03:08:58.639Z,51.62
2023-02-09T03:11:38.257Z,51.97
2023-02-09T03:14:27.465Z,51.76
2023-02-09T03:17:03.683Z,51.81
2023-02-09T03:19:46.856Z,51.84
2023-02-09T03:22:28.136Z,51.55
2023-02-09T03:25:16.409Z,51.63
2023-02-09T03:27:55.340Z,51.30
2023-02-09T03:30:22.995Z,51.72
2023-02-09T03:32:50.452Z,51.52
2023-02-09T03:35:17.671Z,51.64
2023-02-09T03:37:44.685Z,51.42
2023-02-09T03:40:11.922Z,51.36
2023-02-09T03:42:39.091Z,51.24
2023-02-09T03:45:07.462Z,51.04
2023-02-09T03:47:34.455Z,50.84
2023-02-09T03:50:01.356Z,51.04
2023-02-09T03:52:30.375Z,51.08
2023-02-09T03:54:57.414Z,51.03
2023-02-09T03:57:24.666Z,51.09
2023-02-09T03:59:51.696Z,51.20
2023-02-09T04:02:18.965Z,50.75
2023-02-09T04:04:46.242Z,50.68
2023-02-09T04:07:13.589Z,50.57
2023-02-09T04:09:41.831Z,50.52
2023-02-09T04:12:08.808Z,50.49
2023-02-09T04:14:36.516Z,50.72
2023-02-09T04:17:03.443Z,50.99
2023-02-09T04:19:30.362Z,51.04
2023-02-09T04:22:00.537Z,50.97
2023-02-09T04:24:28.141Z,51.14
2023-02-09T04:26:55.317Z,51.48
2023-02-09T04:29:22.308Z,51.31
2023-02-09T04:31:49.307Z,51.44
2023-02-09T04:34:16.347Z,51.67
2023-02-09T04:36:43.739Z,51.63
2023-02-09T04:39:10.554Z,51.28
2023-02-09T04:41:37.501Z,51.30
2023-02-09T04:44:04.720Z,50.99
2023-02-09T04:46:32.237Z,51.13
2023-02-09T04:49:00.391Z,51.04
2023-02-09T04:51:27.370Z,50.59
2023-02-09T04:53:54.460Z,50.70
2023-02-09T04:56:21.511Z,50.75
2023-02-09T04:59:07.270Z,50.90
2023-02-09T05:01:34.291Z,51.06
2023-02-09T05:04:01.739Z,51.27
2023-02-09T05:06:30.602Z,50.94
2023-02-09T05:08:57.938Z,50.67
2023-02-09T05:11:25.670Z,50.93
2023-02-09T05:13:52.832Z,50.99
2023-02-09T05:16:21.401Z,51.07
2023-02-09T05:18:49.977Z,51.26
2023-02-09T05:21:16.856Z,51.15
2023-02-09T05:23:44.228Z,50.88
2023-02-09T05:26:12.139Z,50.76
2023-02-09T05:28:39.387Z,51.09
2023-02-09T05:31:06.343Z,51.19
2023-02-09T05:33:33.927Z,50.93
2023-02-09T05:36:00.787Z,51.03
2023-02-09T05:38:28.041Z,50.50
2023-02-09T05:40:55.499Z,50.46
2023-02-09T05:43:22.371Z,50.29
2023-02-09T05:45:49.283Z,50.47
2023-02-09T05:48:16.401Z,50.48
2023-02-09T05:50:43.867Z,50.27
2023-02-09T05:53:15.130Z,49.91
2023-02-09T05:55:43.411Z,49.93
2023-02-09T05:58:10.670Z,49.97
2023-02-09T06:00:37.868Z,49.89
2023-02-09T06:03:04.895Z,49.97
2023-02-09T06:05:32.034Z,50.18
2023-02-09T06:07:59.177Z,50.32
2023-02-09T06:10:26.401Z,50.39
2023-02-09T06:12:53.804Z,49.99
2023-02-09T06:15:20.792Z,49.94
2023-02-09T06:17:48.465Z,49.30
2023-02-09T06:20:15.598Z,49.10
2023-02-09T06:22:42.631Z,49.13
2023-02-09T06:25:10.020Z,48.96
2023-02-09T06:27:36.966Z,49.11
2023-02-09T06:30:05.036Z,48.84
2023-02-09T06:32:33.156Z,49.09
2023-02-09T06:35:00.438Z,48.98
2023-02-09T06:37:27.394Z,49.02
2023-02-09T06:39:54.281Z,48.75
2023-02-09T06:42:22.043Z,48.95
2023-02-09T06:44:49.288Z,49.30
2023-02-09T06:47:16.132Z,49.38
2023-02-09T06:49:43.412Z,49.44
2023-02-09T06:52:10.548Z,49.46
2023-02-09T06:54:38.029Z,49.12
2023-02-09T06:57:05.512Z,49.18
2023-02-09T06:59:32.448Z,49.41
2023-02-09T07:01:59.437Z,49.35
2023-02-09T07:04:26.768Z,49.59
2023-02-09T07:06:53.847Z,49.74
2023-02-09T07:09:22.206Z,49.64
2023-02-09T07:11:54.751Z,49.63
2023-02-09T07:14:22.485Z,50.03
2023-02-09T07:16:49.798Z,49.54
2023-02-09T07:19:16.676Z,49.05
2023-02-09T07:21:43.564Z,49.15
2023-02-09T07:24:10.728Z,49.30
2023-02-09T07:26:38.388Z,49.18
2023-02-09T07:29:05.641Z,49.35
2023-02-09T07:31:32.668Z,49.06
2023-02-09T07:33:59.683Z,48.78
2023-02-09T07:36:26.884Z,49.21
2023-02-09T07:38:57.312Z,49.22
2023-02-09T07:41:28.035Z,50.29
2023-02-09T07:43:55.521Z,49.64
2023-02-09T07:46:23.277Z,49.59
2023-02-09T07:48:50.852Z,49.92
2023-02-09T07:51:19.443Z,49.85
2023-02-09T07:53:46.983Z,50.38
2023-02-09T07:56:14.107Z,50.83
2023-02-09T07:58:41.363Z,50.70
2023-02-09T08:01:10.752Z,50.67
2023-02-09T08:03:38.347Z,50.77
2023-02-09T08:06:19.448Z,50.74
2023-02-09T08:08:49.502Z,50.03
2023-02-09T08:11:31.829Z,49.39
2023-02-09T08:13:58.971Z,49.46
2023-02-09T08:16:27.302Z,49.61
2023-02-09T08:18:58.204Z,49.41
2023-02-09T08:21:25.613Z,49.46
2023-02-09T08:23:53.583Z,49.92
2023-02-09T08:26:20.978Z,50.12
2023-02-09T08:28:48.150Z,49.34
2023-02-09T08:31:17.252Z,49.68
2023-02-09T08:33:47.726Z,50.60
2023-02-09T08:36:15.198Z,51.21
2023-02-09T08:38:42.486Z,49.19
2023-02-09T08:41:12.055Z,48.48
2023-02-09T08:43:38.982Z,47.90
2023-02-09T08:46:10.726Z,47.68
2023-02-09T08:48:43.372Z,47.75
2023-02-09T08:51:11.522Z,47.19
2023-02-09T08:53:38.648Z,47.36
2023-02-09T08:56:06.204Z,46.98
2023-02-09T08:58:34.296Z,47.41
2023-02-09T09:01:01.803Z,47.75
2023-02-09T09:03:30.816Z,47.81
2023-02-09T09:05:59.111Z,47.72
2023-02-09T09:08:26.113Z,47.48
2023-02-09T09:10:53.449Z,46.47
2023-02-09T09:13:20.646Z,45.40
2023-02-09T09:15:48.595Z,45.24
2023-02-09T09:18:15.895Z,44.27
2023-02-09T09:20:43.159Z,44.11
2023-02-09T09:23:11.113Z,43.85
2023-02-09T09:25:39.035Z,44.40
2023-02-09T09:28:06.483Z,44.31
2023-02-09T09:30:34.224Z,43.69
2023-02-09T09:33:01.715Z,43.52
2023-02-09T09:35:29.252Z,43.56
2023-02-09T09:37:58.023Z,43.42
2023-02-09T09:40:29.614Z,43.52
2023-02-09T09:42:59.006Z,43.90
2023-02-09T09:45:27.175Z,43.75
2023-02-09T09:47:55.776Z,43.23
2023-02-09T09:50:26.272Z,43.07
2023-02-09T09:53:01.580Z,43.00
2023-02-09T09:55:29.983Z,43.03
2023-02-09T09:58:02.897Z,43.50
2023-02-09T10:00:39.256Z,43.46
2023-02-09T10:03:14.721Z,43.08
2023-02-09T10:05:41.901Z,42.82
2023-02-09T10:08:23.297Z,42.99
2023-02-09T10:11:03.769Z,43.27
2023-02-09T10:13:40.743Z,42.87
2023-02-09T10:16:20.375Z,43.03
2023-02-09T10:18:58.011Z,43.03
2023-02-09T10:21:29.905Z,42.55
2023-02-09T10:23:59.431Z,42.25
2023-02-09T10:26:27.571Z,42.47
2023-02-09T10:29:24.089Z,42.40
2023-02-09T10:31:57.290Z,42.13
2023-02-09T10:34:46.367Z,42.39
2023-02-09T10:37:34.477Z,42.50
2023-02-09T10:40:12.347Z,42.45
2023-02-09T10:42:42.830Z,42.64
2023-02-09T10:45:15.784Z,43.09
2023-02-09T10:47:42.582Z,43.11
2023-02-09T10:50:17.060Z,42.32
2023-02-09T10:53:36.634Z,42.38
2023-02-09T10:56:06.426Z,42.57
2023-02-09T10:58:36.612Z,42.54
2023-02-09T11:01:17.463Z,42.73
2023-02-09T11:04:02.095Z,42.88
2023-02-09T11:06:35.212Z,42.76
2023-02-09T11:09:16.663Z,42.86
2023-02-09T11:11:43.684Z,42.60
2023-02-09T11:14:15.782Z,43.23
2023-02-09T11:16:52.476Z,43.16
2023-02-09T11:19:21.865Z,42.98
2023-02-09T11:22:21.265Z,43.20
2023-02-09T11:24:54.118Z,43.19
2023-02-09T11:27:26.967Z,43.10
2023-02-09T11:30:18.751Z,43.46
2023-02-09T11:32:55.359Z,43.49
2023-02-09T11:35:25.213Z,43.26
2023-02-09T11:37:58.201Z,43.32
2023-02-09T11:40:25.193Z,43.13
2023-02-09T11:42:52.315Z,43.12
2023-02-09T11:45:24.500Z,43.24
2023-02-09T11:47:58.032Z,43.30
2023-02-09T11:50:27.988Z,43.84
2023-02-09T11:53:18.122Z,43.84
2023-02-09T11:56:05.509Z,44.16
2023-02-09T11:58:51.268Z,44.04
2023-02-09T12:01:33.509Z,43.67
2023-02-09T12:04:19.101Z,43.55
2023-02-09T12:06:50.489Z,43.83
2023-02-09T12:09:54.803Z,43.78
2023-02-09T12:12:23.798Z,43.28
2023-02-09T12:15:13.727Z,43.17
2023-02-09T12:18:06.636Z,43.30
2023-02-09T12:20:36.584Z,43.38
2023-02-09T12:23:25.517Z,43.01
2023-02-09T12:26:00.710Z,43.47
2023-02-09T12:28:31.898Z,43.31
2023-02-09T12:31:06.650Z,43.44
2023-02-09T12:33:36.976Z,43.28
2023-02-09T12:36:09.940Z,43.34
2023-02-09T12:38:51.577Z,43.26
2023-02-09T12:41:22.960Z,43.59
2023-02-09T12:43:50.330Z,43.48
2023-02-09T12:46:29.321Z,43.14
2023-02-09T12:49:13.150Z,43.51
2023-02-09T12:51:55.507Z,43.46
2023-02-09T12:54:44.399Z,43.24
2023-02-09T12:57:16.271Z,42.69
2023-02-09T12:59:53.131Z,42.58
2023-02-09T13:02:26.764Z,42.72
2023-02-09T13:05:02.119Z,42.96
2023-02-09T13:07:32.340Z,42.84
2023-02-09T13:10:05.898Z,42.85
2023-02-09T13:12:38.811Z,42.54
2023-02-09T13:15:12.510Z,42.58
2023-02-09T13:17:59.830Z,42.64
2023-02-09T13:20:33.437Z,42.85
2023-02-09T13:23:27.044Z,42.74
2023-02-09T13:26:01.766Z,42.88
2023-02-09T13:28:29.318Z,42.91
2023-02-09T13:30:56.472Z,43.05
2023-02-09T13:33:43.751Z,43.37
2023-02-09T13:36:46.762Z,43.60
2023-02-09T13:39:24.296Z,43.80
2023-02-09T13:41:53.291Z,43.51
2023-02-09T13:44:25.220Z,43.28
2023-02-09T13:46:57.113Z,43.07
2023-02-09T13:49:25.692Z,43.38
2023-02-09T13:52:12.057Z,43.43
2023-02-09T13:54:39.642Z,43.15
2023-02-09T13:57:33.466Z,43.49
2023-02-09T14:00:16.050Z,44.00
2023-02-09T14:02:58.863Z,44.13
2023-02-09T14:05:40.111Z,44.01
2023-02-09T14:08:07.749Z,44.16
2023-02-09T14:10:35.165Z,44.36
2023-02-09T14:13:36.650Z,44.78
2023-02-09T14:16:06.720Z,44.88
2023-02-09T14:18:55.876Z,44.76
2023-02-09T14:21:36.918Z,44.71
2023-02-09T14:24:13.298Z,45.08
2023-02-09T14:27:04.234Z,44.88
2023-02-09T14:29:32.436Z,44.96
2023-02-09T14:32:00.792Z,44.91
2023-02-09T14:34:35.762Z,44.93
2023-02-09T14:37:12.974Z,44.88
2023-02-09T14:39:52.011Z,44.66
2023-02-09T14:42:19.109Z,44.72
2023-02-09T14:44:56.989Z,44.79
2023-02-09T14:47:28.381Z,44.79
2023-02-09T14:49:57.164Z,44.59
2023-02-09T14:52:28.157Z,44.63
2023-02-09T14:55:05.904Z,44.56
2023-02-09T14:57:35.614Z,44.50
2023-02-09T15:00:23.645Z,44.79
2023-02-09T15:02:51.894Z,44.51
2023-02-09T15:05:19.847Z,44.43
2023-02-09T15:07:55.546Z,44.68
2023-02-09T15:10:27.721Z,44.65
2023-02-09T15:12:58.280Z,44.66
2023-02-09T15:15:25.615Z,44.79
2023-02-09T15:17:54.551Z,44.63
2023-02-09T15:20:24.746Z,44.57
2023-02-09T15:22:53.041Z,44.81
2023-02-09T15:25:20.958Z,44.84
2023-02-09T15:27:52.930Z,44.69
2023-02-09T15:30:31.757Z,44.72
2023-02-09T15:32:59.615Z,44.66
2023-02-09T15:35:27.460Z,44.70
2023-02-09T15:37:56.076Z,44.84
2023-02-09T15:40:45.016Z,45.05
2023-02-09T15:43:36.193Z,45.11
2023-02-09T15:46:23.572Z,45.23
2023-02-09T15:48:50.508Z,45.15
2023-02-09T15:51:17.508Z,45.14
2023-02-09T15:53:45.827Z,45.21
2023-02-09T15:56:12.982Z,45.38
2023-02-09T15:58:44.203Z,45.16
2023-02-09T16:01:13.523Z,45.23
2023-02-09T16:03:40.211Z,45.24
2023-02-09T16:06:12.034Z,45.44
2023-02-09T16:08:38.926Z,45.46
2023-02-09T16:11:08.988Z,45.78
2023-02-09T16:13:50.619Z,45.71
2023-02-09T16:16:17.966Z,45.98
2023-02-09T16:18:46.094Z,46.13
2023-02-09T16:21:27.665Z,46.16
2023-02-09T16:23:57.612Z,46.37
2023-02-09T16:26:24.805Z,46.36
2023-02-09T16:28:51.909Z,46.29
2023-02-09T16:31:19.007Z,46.43
2023-02-09T16:33:45.967Z,46.37
2023-02-09T16:36:15.710Z,46.38
2023-02-09T16:38:42.672Z,46.24
2023-02-09T16:41:33.946Z,46.37
2023-02-09T16:44:01.714Z,46.09
2023-02-09T16:46:29.226Z,46.13
2023-02-09T16:49:00.665Z,46.12
2023-02-09T16:51:27.821Z,46.16
2023-02-09T16:53:56.136Z,46.29
2023-02-09T16:56:25.349Z,46.44
2023-02-09T16:58:52.269Z,46.66
2023-02-09T17:01:20.644Z,46.54
2023-02-09T17:03:49.427Z,46.86
2023-02-09T17:06:19.459Z,47.05
2023-02-09T17:08:46.810Z,46.99
2023-02-09T17:11:22.849Z,46.87
2023-02-09T17:13:50.549Z,47.10
2023-02-09T17:16:30.097Z,47.06
2023-02-09T17:19:00.016Z,47.18
2023-02-09T17:21:28.700Z,47.22
2023-02-09T17:23:57.081Z,47.43
2023-02-09T17:26:26.139Z,47.36
2023-02-09T17:28:53.580Z,47.18
2023-02-09T17:31:23.276Z,47.16
2023-02-09T17:33:55.155Z,47.10
2023-02-09T17:36:28.488Z,47.15
2023-02-09T17:38:57.503Z,47.34
2023-02-09T17:41:24.797Z,47.28
2023-02-09T17:43:51.743Z,47.21
2023-02-09T17:46:19.130Z,47.07
2023-02-09T17:48:46.855Z,47.24
2023-02-09T17:51:28.594Z,47.11
2023-02-09T17:53:55.653Z,47.12
2023-02-09T17:56:22.906Z,47.26
2023-02-09T17:58:50.130Z,47.12
2023-02-09T18:01:21.701Z,47.20
2023-02-09T18:03:48.857Z,47.29
2023-02-09T18:06:16.901Z,47.15
2023-02-09T18:08:44.190Z,47.25
2023-02-09T18:11:15.113Z,47.07
2023-02-09T18:13:42.343Z,46.85
2023-02-09T18:16:09.203Z,46.64
2023-02-09T18:18:38.004Z,46.62
2023-02-09T18:21:05.515Z,46.66
2023-02-09T18:23:32.812Z,46.77
2023-02-09T18:25:59.841Z,46.85
2023-02-09T18:28:27.075Z,46.79
2023-02-09T18:30:54.631Z,46.66
2023-02-09T18:33:21.925Z,46.68
2023-02-09T18:35:49.472Z,46.70
2023-02-09T18:38:17.119Z,46.86
2023-02-09T18:40:44.995Z,46.93
2023-02-09T18:43:14.028Z,46.76
2023-02-09T18:45:40.803Z,46.82
2023-02-09T18:48:07.664Z,46.64
2023-02-09T18:50:34.993Z,46.73
2023-02-09T18:53:02.832Z,46.81
2023-02-09T18:55:31.917Z,46.79
2023-02-09T18:57:59.479Z,46.58
2023-02-09T19:00:26.882Z,46.37
2023-02-09T19:02:57.607Z,46.50
2023-02-09T19:05:26.280Z,46.64
2023-02-09T19:07:55.358Z,46.62
2023-02-09T19:10:22.990Z,46.48
2023-02-09T19:12:50.754Z,46.75
2023-02-09T19:15:19.232Z,46.82
2023-02-09T19:17:46.415Z,47.16
2023-02-09T19:20:19.094Z,47.23
2023-02-09T19:22:47.656Z,47.40
2023-02-09T19:25:14.793Z,47.47
2023-02-09T19:27:42.005Z,47.67
2023-02-09T19:30:13.172Z,47.95
2023-02-09T19:32:41.249Z,47.73
2023-02-09T19:35:09.019Z,48.03
2023-02-09T19:37:36.867Z,47.92
2023-02-09T19:40:16.843Z,48.02
2023-02-09T19:42:44.272Z,48.10
2023-02-09T19:45:11.863Z,48.02
2023-02-09T19:47:39.307Z,47.98
2023-02-09T19:50:06.358Z,47.94
2023-02-09T19:52:37.292Z,48.01
2023-02-09T19:55:04.655Z,47.91
2023-02-09T19:57:31.711Z,47.79
2023-02-09T19:59:59.472Z,47.66
2023-02-09T20:02:26.771Z,47.65
2023-02-09T20:04:53.957Z,47.74
2023-02-09T20:07:21.945Z,47.81
2023-02-09T20:09:50.217Z,47.68
2023-02-09T20:12:18.648Z,47.63
2023-02-09T20:14:46.060Z,47.57
2023-02-09T20:17:14.855Z,47.54
2023-02-09T20:19:41.962Z,47.33
2023-02-09T20:22:11.125Z,47.51
2023-02-09T20:24:38.714Z,47.27
2023-02-09T20:27:07.626Z,47.21
2023-02-09T20:29:34.832Z,47.17
2023-02-09T20:32:02.496Z,47.12
2023-02-09T20:34:29.578Z,47.23
2023-02-09T20:42:03.452Z,47.76
2023-02-09T20:44:50.665Z,48.01
2023-02-09T20:47:18.325Z,48.29
2023-02-09T20:49:45.679Z,48.47
2023-02-09T20:52:12.587Z,48.71
2023-02-09T20:54:40.018Z,48.75
2023-02-09T20:57:07.343Z,48.88
2023-02-09T20:59:34.364Z,48.83
2023-02-09T21:02:01.412Z,48.83
2023-02-09T21:04:29.569Z,48.43
2023-02-09T21:06:57.122Z,48.46
2023-02-09T21:09:25.986Z,48.39
2023-02-09T21:11:53.723Z,48.52
2023-02-09T21:14:27.859Z,48.67
2023-02-09T21:17:08.378Z,48.90
2023-02-09T21:19:36.517Z,49.01
2023-02-09T21:22:03.418Z,48.95
2023-02-09T21:24:32.276Z,49.12
2023-02-09T21:27:02.456Z,49.46
2023-02-09T21:29:29.889Z,49.54
2023-02-09T21:32:02.416Z,49.66
2023-02-09T21:34:30.013Z,49.80
2023-02-09T21:36:57.042Z,49.73
2023-02-09T21:39:24.104Z,49.81
2023-02-09T21:42:10.147Z,49.50
2023-02-09T21:44:40.001Z,49.42
2023-02-09T21:47:07.429Z,49.14
2023-02-09T21:49:34.578Z,49.26
2023-02-09T21:52:01.478Z,49.69
2023-02-09T21:54:33.218Z,50.06
2023-02-09T21:57:00.995Z,50.03
2023-02-09T21:59:28.819Z,50.25
2023-02-09T22:01:55.919Z,50.18
2023-02-09T22:04:22.912Z,50.34
2023-02-09T22:06:50.226Z,50.15
2023-02-09T22:09:19.584Z,49.94
2023-02-09T22:11:46.640Z,50.03
2023-02-09T22:14:13.971Z,50.05
2023-02-09T22:16:41.856Z,50.10
2023-02-09T22:19:09.181Z,50.13
2023-02-09T22:21:36.098Z,50.02
2023-02-09T22:24:03.185Z,49.95
2023-02-09T22:26:30.155Z,49.96
2023-02-09T22:28:57.243Z,49.86
2023-02-09T22:31:24.632Z,49.88
2023-02-09T22:33:53.352Z,49.93
2023-02-09T22:36:20.333Z,49.78
2023-02-09T22:38:47.334Z,49.71
2023-02-09T22:41:22.285Z,49.72
2023-02-09T22:44:00.212Z,49.67
2023-02-09T22:46:32.634Z,49.88
2023-02-09T22:49:01.917Z,49.88
2023-02-09T22:51:29.830Z,49.75
2023-02-09T22:53:57.833Z,49.34
2023-02-09T22:56:25.824Z,48.98
2023-02-09T22:58:54.317Z,49.04
2023-02-09T23:01:21.806Z,49.21
2023-02-09T23:03:50.276Z,49.06
2023-02-09T23:06:23.518Z,49.12
2023-02-09T23:08:52.888Z,49.02
2023-02-09T23:11:21.584Z,48.96
2023-02-09T23:14:08.455Z,49.10
2023-02-09T23:16:36.770Z,49.26
2023-02-09T23:19:07.549Z,49.24
2023-02-09T23:21:39.417Z,49.02
2023-02-09T23:24:11.503Z,48.66
2023-02-09T23:26:50.849Z,48.72
2023-02-09T23:29:22.433Z,48.80
2023-02-09T23:31:50.572Z,48.81
2023-02-09T23:34:21.872Z,48.45
2023-02-09T23:36:50.913Z,48.44
2023-02-09T23:39:26.455Z,48.26
2023-02-09T23:42:01.136Z,48.19
2023-02-09T23:44:36.121Z,48.24
2023-02-09T23:50:09.110Z,48.47
2023-02-09T23:52:36.683Z,48.08
2023-02-09T23:55:04.028Z,47.94
2023-02-09T23:57:32.066Z,48.01
2023-02-09T23:59:59.160Z,48.24
